IJM613 LFML-EGLF
Flight info
| Callsign | IJM613 |
|---|---|
| Flight time | 1h 40m |
| Altitude | 40000 |
| Route | ETREK DCT MADOT DCT MOPEM DCT CACHI DCT AVLON DCT OKRIX DCT BRY DCT CLM DCT KOPOR DCT SOSUN DCT SUBIP UM8 ELDAX |
| Aircraft | CL60/M-SBDE1E2E3FGHIJ1J4J5J7M3RWXYZ/LB1V1D1 |
Departure
| Time | 2026-04-20 18:18 |
|---|---|
| Airport | Marseille Provence Airport (LFML) |
Arrival
| Time | 2026-04-20 19:58 |
|---|---|
| Airport | Farnborough Airport (EGLF) |
| Time | Latitude | Longitude | Altitude | Speed | Heading |
|---|---|---|---|---|---|
| 2026-04-20 17:25 | 43.44431 | 5.21451 | 30 ft | 0 kts | 31° |
| 2026-04-20 17:26 | 43.44427 | 5.21407 | 30 ft | 0 kts | 31° |
| 2026-04-20 17:26 | 43.44432 | 5.21403 | 29 ft | 0 kts | 86° |
| 2026-04-20 17:26 | 43.44432 | 5.21399 | 29 ft | 0 kts | 86° |
| 2026-04-20 18:10 | 43.44425 | 5.21416 | 28 ft | 4 kts | 152° |
| 2026-04-20 18:10 | 43.44400 | 5.21423 | 29 ft | 2 kts | 186° |
| 2026-04-20 18:11 | 43.44398 | 5.21423 | 29 ft | 0 kts | 191° |
| 2026-04-20 18:11 | 43.44362 | 5.21400 | 29 ft | 6 kts | 192° |
| 2026-04-20 18:11 | 43.44314 | 5.21422 | 29 ft | 8 kts | 182° |
| 2026-04-20 18:11 | 43.44279 | 5.21438 | 30 ft | 0 kts | 134° |
| 2026-04-20 18:12 | 43.44277 | 5.21442 | 30 ft | 0 kts | 134° |
| 2026-04-20 18:12 | 43.44264 | 5.21460 | 30 ft | 0 kts | 134° |
| 2026-04-20 18:13 | 43.44260 | 5.21465 | 30 ft | 4 kts | 134° |
| 2026-04-20 18:13 | 43.44230 | 5.21508 | 31 ft | 7 kts | 134° |
| 2026-04-20 18:13 | 43.44203 | 5.21528 | 32 ft | 4 kts | 189° |
| 2026-04-20 18:13 | 43.44177 | 5.21485 | 32 ft | 7 kts | 219° |
| 2026-04-20 18:14 | 43.44132 | 5.21431 | 32 ft | 9 kts | 224° |
| 2026-04-20 18:14 | 43.44077 | 5.21359 | 31 ft | 12 kts | 222° |
| 2026-04-20 18:14 | 43.43993 | 5.21381 | 33 ft | 15 kts | 134° |
| 2026-04-20 18:14 | 43.43923 | 5.21489 | 35 ft | 13 kts | 111° |
| 2026-04-20 18:15 | 43.43958 | 5.21605 | 37 ft | 15 kts | 43° |
| 2026-04-20 18:15 | 43.43979 | 5.21704 | 37 ft | 11 kts | 128° |
| 2026-04-20 18:15 | 43.43922 | 5.21787 | 40 ft | 12 kts | 134° |
| 2026-04-20 18:15 | 43.43861 | 5.21872 | 42 ft | 13 kts | 134° |
| 2026-04-20 18:16 | 43.43798 | 5.21960 | 45 ft | 12 kts | 135° |
| 2026-04-20 18:16 | 43.43729 | 5.22037 | 47 ft | 13 kts | 150° |
| 2026-04-20 18:16 | 43.43646 | 5.22100 | 50 ft | 13 kts | 149° |
| 2026-04-20 18:16 | 43.43560 | 5.22169 | 52 ft | 14 kts | 150° |
| 2026-04-20 18:17 | 43.43470 | 5.22239 | 55 ft | 14 kts | 151° |
| 2026-04-20 18:17 | 43.43377 | 5.22284 | 57 ft | 12 kts | 203° |
| 2026-04-20 18:17 | 43.43333 | 5.22176 | 56 ft | 15 kts | 264° |
| 2026-04-20 18:17 | 43.43331 | 5.22044 | 54 ft | 7 kts | 272° |
| 2026-04-20 18:18 | 43.43359 | 5.21941 | 52 ft | 23 kts | 315° |
| 2026-04-20 18:18 | 43.43743 | 5.21401 | 37 ft | 129 kts | 313° |
| 2026-04-20 18:18 | 43.44550 | 5.20317 | 277 ft | 184 kts | 314° |
| 2026-04-20 18:18 | 43.45535 | 5.19005 | 948 ft | 214 kts | 313° |
| 2026-04-20 18:19 | 43.46599 | 5.17484 | 1576 ft | 224 kts | 313° |
| 2026-04-20 18:19 | 43.47646 | 5.15954 | 2151 ft | 221 kts | 313° |
| 2026-04-20 18:19 | 43.48703 | 5.14425 | 2758 ft | 221 kts | 314° |
| 2026-04-20 18:19 | 43.49762 | 5.12902 | 3360 ft | 221 kts | 314° |
| 2026-04-20 18:20 | 43.50813 | 5.11390 | 3952 ft | 223 kts | 314° |
| 2026-04-20 18:20 | 43.51891 | 5.09840 | 4566 ft | 225 kts | 314° |
| 2026-04-20 18:20 | 43.52967 | 5.08292 | 5169 ft | 225 kts | 314° |
| 2026-04-20 18:20 | 43.54038 | 5.06753 | 5765 ft | 227 kts | 314° |
| 2026-04-20 18:21 | 43.55141 | 5.05168 | 6372 ft | 230 kts | 314° |
| 2026-04-20 18:21 | 43.56252 | 5.03571 | 6993 ft | 233 kts | 314° |
| 2026-04-20 18:21 | 43.57361 | 5.01979 | 7631 ft | 234 kts | 314° |
| 2026-04-20 18:21 | 43.58488 | 5.00378 | 8288 ft | 235 kts | 314° |
| 2026-04-20 18:22 | 43.59639 | 4.98748 | 8947 ft | 237 kts | 314° |
| 2026-04-20 18:22 | 43.60776 | 4.97136 | 9607 ft | 239 kts | 313° |
| 2026-04-20 18:22 | 43.61961 | 4.95510 | 10268 ft | 243 kts | 319° |
| 2026-04-20 18:22 | 43.63551 | 4.94317 | 10561 ft | 284 kts | 336° |
| 2026-04-20 18:23 | 43.65449 | 4.93305 | 11453 ft | 301 kts | 336° |
| 2026-04-20 18:23 | 43.67403 | 4.92239 | 12579 ft | 307 kts | 336° |
| 2026-04-20 18:23 | 43.69384 | 4.91158 | 13745 ft | 310 kts | 336° |
| 2026-04-20 18:23 | 43.71361 | 4.90079 | 14839 ft | 314 kts | 336° |
| 2026-04-20 18:24 | 43.73411 | 4.88959 | 15892 ft | 318 kts | 336° |
| 2026-04-20 18:24 | 43.75442 | 4.87848 | 16876 ft | 323 kts | 336° |
| 2026-04-20 18:24 | 43.77537 | 4.86703 | 17783 ft | 328 kts | 336° |
| 2026-04-20 18:24 | 43.79654 | 4.85545 | 18676 ft | 331 kts | 335° |
| 2026-04-20 18:25 | 43.81802 | 4.84370 | 19608 ft | 334 kts | 335° |
| 2026-04-20 18:25 | 43.83956 | 4.83190 | 20445 ft | 338 kts | 335° |
| 2026-04-20 18:25 | 43.86156 | 4.81984 | 21267 ft | 342 kts | 335° |
| 2026-04-20 18:25 | 43.88362 | 4.80774 | 22086 ft | 345 kts | 334° |
| 2026-04-20 18:26 | 43.90605 | 4.79542 | 22868 ft | 349 kts | 334° |
| 2026-04-20 18:26 | 43.92856 | 4.78305 | 23547 ft | 354 kts | 334° |
| 2026-04-20 18:26 | 43.95145 | 4.77046 | 24276 ft | 358 kts | 334° |
| 2026-04-20 18:26 | 43.97503 | 4.75749 | 24973 ft | 363 kts | 334° |
| 2026-04-20 18:27 | 43.99871 | 4.74523 | 25637 ft | 370 kts | 339° |
| 2026-04-20 18:27 | 44.02400 | 4.73691 | 26266 ft | 376 kts | 342° |
| 2026-04-20 18:27 | 44.04953 | 4.72921 | 26918 ft | 379 kts | 342° |
| 2026-04-20 18:27 | 44.07523 | 4.72137 | 27443 ft | 384 kts | 342° |
| 2026-04-20 18:28 | 44.10133 | 4.71340 | 27991 ft | 388 kts | 342° |
| 2026-04-20 18:28 | 44.12807 | 4.70522 | 28548 ft | 391 kts | 342° |
| 2026-04-20 18:28 | 44.15457 | 4.69709 | 29037 ft | 395 kts | 342° |
| 2026-04-20 18:28 | 44.18158 | 4.68880 | 29540 ft | 398 kts | 342° |
| 2026-04-20 18:29 | 44.20837 | 4.68057 | 30041 ft | 400 kts | 342° |
| 2026-04-20 18:29 | 44.23574 | 4.67214 | 30456 ft | 404 kts | 342° |
| 2026-04-20 18:29 | 44.26321 | 4.66367 | 30894 ft | 407 kts | 342° |
| 2026-04-20 18:29 | 44.29094 | 4.65513 | 31418 ft | 407 kts | 342° |
| 2026-04-20 18:30 | 44.31845 | 4.64665 | 31982 ft | 406 kts | 342° |
| 2026-04-20 18:30 | 44.34588 | 4.63818 | 32566 ft | 403 kts | 342° |
| 2026-04-20 18:30 | 44.37311 | 4.62977 | 33151 ft | 399 kts | 342° |
| 2026-04-20 18:30 | 44.40025 | 4.62137 | 33678 ft | 397 kts | 341° |
| 2026-04-20 18:31 | 44.42717 | 4.61302 | 34112 ft | 397 kts | 341° |
| 2026-04-20 18:31 | 44.45404 | 4.60468 | 34539 ft | 396 kts | 341° |
| 2026-04-20 18:31 | 44.48059 | 4.59642 | 34932 ft | 395 kts | 341° |
| 2026-04-20 18:31 | 44.50761 | 4.58802 | 35303 ft | 393 kts | 341° |
| 2026-04-20 18:32 | 44.53437 | 4.57967 | 35633 ft | 393 kts | 341° |
| 2026-04-20 18:32 | 44.56083 | 4.57142 | 35933 ft | 393 kts | 341° |
| 2026-04-20 18:32 | 44.58762 | 4.56305 | 36236 ft | 392 kts | 341° |
| 2026-04-20 18:32 | 44.61393 | 4.55482 | 36511 ft | 392 kts | 341° |
| 2026-04-20 18:33 | 44.64071 | 4.54673 | 36862 ft | 393 kts | 344° |
| 2026-04-20 18:33 | 44.66778 | 4.54224 | 37219 ft | 398 kts | 351° |
| 2026-04-20 18:33 | 44.69566 | 4.54296 | 37550 ft | 404 kts | 359° |
| 2026-04-20 18:33 | 44.72368 | 4.54794 | 37845 ft | 407 kts | 1° |
| 2026-04-20 18:34 | 44.75169 | 4.55344 | 38161 ft | 406 kts | 1° |
| 2026-04-20 18:34 | 44.77936 | 4.55883 | 38457 ft | 405 kts | 1° |
| 2026-04-20 18:34 | 44.80723 | 4.56426 | 38688 ft | 405 kts | 1° |
| 2026-04-20 18:34 | 44.83509 | 4.56969 | 38909 ft | 405 kts | 1° |
| 2026-04-20 18:35 | 44.86327 | 4.57519 | 39116 ft | 406 kts | 1° |
| 2026-04-20 18:35 | 44.89104 | 4.58061 | 39328 ft | 405 kts | 1° |
| 2026-04-20 18:35 | 44.91890 | 4.58605 | 39499 ft | 406 kts | 1° |
| 2026-04-20 18:35 | 44.94675 | 4.59150 | 39684 ft | 406 kts | 1° |
| 2026-04-20 18:36 | 44.97490 | 4.59700 | 39834 ft | 406 kts | 1° |
| 2026-04-20 18:36 | 45.00270 | 4.60244 | 39978 ft | 407 kts | 1° |
| 2026-04-20 18:36 | 45.05902 | 4.61346 | 39992 ft | 414 kts | 1° |
| 2026-04-20 18:37 | 45.11671 | 4.62476 | 39987 ft | 421 kts | 1° |
| 2026-04-20 18:37 | 45.17533 | 4.63493 | 39978 ft | 423 kts | 356° |
| 2026-04-20 18:38 | 45.23331 | 4.62843 | 39989 ft | 419 kts | 345° |
| 2026-04-20 18:38 | 45.29100 | 4.61518 | 39997 ft | 424 kts | 345° |
| 2026-04-20 18:39 | 45.34940 | 4.60181 | 39992 ft | 428 kts | 345° |
| 2026-04-20 18:39 | 45.40847 | 4.58826 | 39997 ft | 431 kts | 345° |
| 2026-04-20 18:40 | 45.46794 | 4.57459 | 39994 ft | 435 kts | 345° |
| 2026-04-20 18:40 | 45.52774 | 4.56082 | 40007 ft | 438 kts | 345° |
| 2026-04-20 18:41 | 45.58798 | 4.54692 | 39990 ft | 441 kts | 346° |
| 2026-04-20 18:41 | 45.64842 | 4.53294 | 39989 ft | 443 kts | 346° |
| 2026-04-20 18:42 | 45.70929 | 4.51884 | 39998 ft | 445 kts | 346° |
| 2026-04-20 18:42 | 45.77040 | 4.50466 | 40008 ft | 445 kts | 346° |
| 2026-04-20 18:43 | 45.83163 | 4.49041 | 39997 ft | 444 kts | 346° |
| 2026-04-20 18:43 | 45.89214 | 4.47631 | 40005 ft | 444 kts | 346° |
| 2026-04-20 18:44 | 45.95301 | 4.46207 | 40022 ft | 444 kts | 346° |
| 2026-04-20 18:44 | 46.01424 | 4.44773 | 40020 ft | 444 kts | 346° |
| 2026-04-20 18:45 | 46.07505 | 4.43345 | 40007 ft | 444 kts | 346° |
| 2026-04-20 18:45 | 46.13622 | 4.41905 | 40030 ft | 444 kts | 346° |
| 2026-04-20 18:46 | 46.19729 | 4.40464 | 40017 ft | 445 kts | 346° |
| 2026-04-20 18:46 | 46.25805 | 4.39027 | 40022 ft | 445 kts | 346° |
| 2026-04-20 18:47 | 46.31838 | 4.37238 | 40024 ft | 442 kts | 342° |
| 2026-04-20 18:47 | 46.37810 | 4.35138 | 40025 ft | 441 kts | 342° |
| 2026-04-20 18:48 | 46.43807 | 4.33028 | 40015 ft | 442 kts | 341° |
| 2026-04-20 18:48 | 46.49732 | 4.30941 | 40025 ft | 442 kts | 341° |
| 2026-04-20 18:49 | 46.55685 | 4.28840 | 40031 ft | 442 kts | 341° |
| 2026-04-20 18:49 | 46.61661 | 4.26727 | 40038 ft | 442 kts | 341° |
| 2026-04-20 18:50 | 46.67631 | 4.24612 | 40036 ft | 442 kts | 341° |
| 2026-04-20 18:50 | 46.73606 | 4.22491 | 40038 ft | 441 kts | 341° |
| 2026-04-20 18:51 | 46.79561 | 4.20372 | 40025 ft | 442 kts | 341° |
| 2026-04-20 18:51 | 46.85521 | 4.18247 | 40030 ft | 443 kts | 341° |
| 2026-04-20 18:52 | 46.91510 | 4.16107 | 40043 ft | 442 kts | 341° |
| 2026-04-20 18:52 | 46.97479 | 4.13969 | 40026 ft | 443 kts | 341° |
| 2026-04-20 18:53 | 47.03449 | 4.11826 | 40047 ft | 443 kts | 341° |
| 2026-04-20 18:53 | 47.09262 | 4.09165 | 40044 ft | 438 kts | 334° |
| 2026-04-20 18:54 | 47.14939 | 4.05802 | 40050 ft | 438 kts | 334° |
| 2026-04-20 18:54 | 47.20600 | 4.02451 | 40042 ft | 438 kts | 334° |
| 2026-04-20 18:55 | 47.26258 | 3.99095 | 40058 ft | 437 kts | 334° |
| 2026-04-20 18:55 | 47.31880 | 3.95753 | 40056 ft | 438 kts | 334° |
| 2026-04-20 18:56 | 47.37519 | 3.92393 | 40056 ft | 438 kts | 334° |
| 2026-04-20 18:56 | 47.43154 | 3.89030 | 40062 ft | 437 kts | 334° |
| 2026-04-20 18:57 | 47.48758 | 3.85676 | 40068 ft | 436 kts | 334° |
| 2026-04-20 18:57 | 47.54387 | 3.82300 | 40063 ft | 437 kts | 334° |
| 2026-04-20 18:58 | 47.59990 | 3.78933 | 40068 ft | 436 kts | 334° |
| 2026-04-20 18:58 | 47.65629 | 3.75538 | 40075 ft | 437 kts | 334° |
| 2026-04-20 18:59 | 47.71229 | 3.72159 | 40069 ft | 437 kts | 334° |
| 2026-04-20 18:59 | 47.76857 | 3.68754 | 40070 ft | 437 kts | 334° |
| 2026-04-20 19:00 | 47.82478 | 3.65346 | 40086 ft | 437 kts | 334° |
| 2026-04-20 19:00 | 47.88068 | 3.61950 | 40082 ft | 436 kts | 334° |
| 2026-04-20 19:01 | 47.93660 | 3.58544 | 40089 ft | 436 kts | 334° |
| 2026-04-20 19:01 | 47.99260 | 3.55119 | 40085 ft | 436 kts | 334° |
| 2026-04-20 19:02 | 48.04838 | 3.51692 | 40081 ft | 436 kts | 334° |
| 2026-04-20 19:02 | 48.10455 | 3.48233 | 40098 ft | 437 kts | 334° |
| 2026-04-20 19:03 | 48.16099 | 3.44748 | 40089 ft | 438 kts | 334° |
| 2026-04-20 19:03 | 48.21698 | 3.41285 | 40104 ft | 438 kts | 334° |
| 2026-04-20 19:04 | 48.27318 | 3.37799 | 40100 ft | 438 kts | 334° |
| 2026-04-20 19:04 | 48.32975 | 3.34283 | 40105 ft | 438 kts | 334° |
| 2026-04-20 19:05 | 48.38605 | 3.30775 | 40104 ft | 437 kts | 334° |
| 2026-04-20 19:05 | 48.44197 | 3.27246 | 40103 ft | 437 kts | 334° |
| 2026-04-20 19:06 | 48.49786 | 3.23680 | 40108 ft | 438 kts | 334° |
| 2026-04-20 19:06 | 48.55376 | 3.20106 | 40106 ft | 439 kts | 334° |
| 2026-04-20 19:07 | 48.60993 | 3.16506 | 40107 ft | 440 kts | 334° |
| 2026-04-20 19:07 | 48.66615 | 3.12895 | 40116 ft | 440 kts | 334° |
| 2026-04-20 19:08 | 48.75043 | 3.07465 | 40112 ft | 440 kts | 334° |
| 2026-04-20 19:09 | 48.80655 | 3.03839 | 40118 ft | 439 kts | 334° |
| 2026-04-20 19:09 | 48.86149 | 2.99950 | 40124 ft | 436 kts | 328° |
| 2026-04-20 19:10 | 48.91419 | 2.95335 | 40131 ft | 437 kts | 328° |
| 2026-04-20 19:10 | 48.96692 | 2.90713 | 40132 ft | 438 kts | 328° |
| 2026-04-20 19:11 | 49.01958 | 2.86089 | 40137 ft | 439 kts | 328° |
| 2026-04-20 19:11 | 49.07237 | 2.81443 | 40129 ft | 439 kts | 328° |
| 2026-04-20 19:12 | 49.12557 | 2.76751 | 40140 ft | 439 kts | 328° |
| 2026-04-20 19:12 | 49.17839 | 2.72081 | 40131 ft | 440 kts | 328° |
| 2026-04-20 19:13 | 49.23127 | 2.67395 | 40152 ft | 440 kts | 328° |
| 2026-04-20 19:13 | 49.28416 | 2.62697 | 40130 ft | 440 kts | 328° |
| 2026-04-20 19:14 | 49.33663 | 2.58025 | 40141 ft | 440 kts | 328° |
| 2026-04-20 19:14 | 49.38948 | 2.53308 | 40149 ft | 439 kts | 328° |
| 2026-04-20 19:15 | 49.44201 | 2.48607 | 40159 ft | 439 kts | 328° |
| 2026-04-20 19:15 | 49.49430 | 2.43754 | 40158 ft | 439 kts | 323° |
| 2026-04-20 19:16 | 49.53897 | 2.37442 | 40164 ft | 436 kts | 310° |
| 2026-04-20 19:16 | 49.57743 | 2.30181 | 40152 ft | 438 kts | 308° |
| 2026-04-20 19:17 | 49.61543 | 2.22964 | 40169 ft | 437 kts | 308° |
| 2026-04-20 19:17 | 49.65342 | 2.15730 | 40171 ft | 429 kts | 308° |
| 2026-04-20 19:18 | 49.69060 | 2.08630 | 39718 ft | 430 kts | 308° |
| 2026-04-20 19:18 | 49.70911 | 2.05092 | 39269 ft | 424 kts | 308° |
| 2026-04-20 19:18 | 49.72744 | 2.01579 | 38732 ft | 421 kts | 308° |
| 2026-04-20 19:18 | 49.74562 | 1.98092 | 38253 ft | 415 kts | 308° |
| 2026-04-20 19:19 | 49.76363 | 1.94634 | 37729 ft | 413 kts | 308° |
| 2026-04-20 19:19 | 49.78157 | 1.91184 | 37248 ft | 408 kts | 308° |
| 2026-04-20 19:19 | 49.79930 | 1.87769 | 36735 ft | 407 kts | 308° |
| 2026-04-20 19:19 | 49.81685 | 1.84394 | 36272 ft | 405 kts | 309° |
| 2026-04-20 19:20 | 49.83730 | 1.81470 | 35828 ft | 407 kts | 324° |
| 2026-04-20 19:20 | 49.86315 | 1.79644 | 35368 ft | 413 kts | 339° |
| 2026-04-20 19:20 | 49.89126 | 1.78993 | 35092 ft | 414 kts | 351° |
| 2026-04-20 19:20 | 49.92036 | 1.78783 | 34935 ft | 416 kts | 352° |
| 2026-04-20 19:21 | 49.94901 | 1.78610 | 34714 ft | 419 kts | 352° |
| 2026-04-20 19:21 | 49.97825 | 1.78445 | 34512 ft | 419 kts | 352° |
| 2026-04-20 19:21 | 50.00714 | 1.78297 | 34290 ft | 419 kts | 352° |
| 2026-04-20 19:21 | 50.03640 | 1.78159 | 34089 ft | 417 kts | 352° |
| 2026-04-20 19:22 | 50.06467 | 1.77688 | 33756 ft | 411 kts | 340° |
| 2026-04-20 19:22 | 50.09018 | 1.75941 | 32997 ft | 399 kts | 321° |
| 2026-04-20 19:22 | 50.10944 | 1.72928 | 32255 ft | 388 kts | 302° |
| 2026-04-20 19:22 | 50.12150 | 1.69224 | 31562 ft | 384 kts | 295° |
| 2026-04-20 19:23 | 50.13484 | 1.65602 | 31066 ft | 381 kts | 302° |
| 2026-04-20 19:23 | 50.14909 | 1.62117 | 30574 ft | 384 kts | 301° |
| 2026-04-20 19:23 | 50.16329 | 1.58636 | 30115 ft | 384 kts | 301° |
| 2026-04-20 19:23 | 50.17768 | 1.55102 | 29641 ft | 386 kts | 302° |
| 2026-04-20 19:24 | 50.19184 | 1.51620 | 29181 ft | 386 kts | 301° |
| 2026-04-20 19:24 | 50.20617 | 1.48093 | 28703 ft | 384 kts | 301° |
| 2026-04-20 19:24 | 50.22036 | 1.44598 | 28239 ft | 382 kts | 302° |
| 2026-04-20 19:24 | 50.23452 | 1.41103 | 27785 ft | 381 kts | 302° |
| 2026-04-20 19:25 | 50.24847 | 1.37657 | 27323 ft | 378 kts | 301° |
| 2026-04-20 19:25 | 50.26242 | 1.34207 | 26862 ft | 375 kts | 301° |
| 2026-04-20 19:25 | 50.27636 | 1.30757 | 26405 ft | 374 kts | 301° |
| 2026-04-20 19:25 | 50.29022 | 1.27320 | 25959 ft | 372 kts | 301° |
| 2026-04-20 19:26 | 50.30395 | 1.23911 | 25510 ft | 369 kts | 301° |
| 2026-04-20 19:26 | 50.31748 | 1.20549 | 25075 ft | 367 kts | 301° |
| 2026-04-20 19:26 | 50.33102 | 1.17180 | 24638 ft | 366 kts | 301° |
| 2026-04-20 19:26 | 50.34457 | 1.13805 | 24192 ft | 363 kts | 301° |
| 2026-04-20 19:27 | 50.35775 | 1.10516 | 23748 ft | 361 kts | 301° |
| 2026-04-20 19:27 | 50.37103 | 1.07200 | 23302 ft | 359 kts | 301° |
| 2026-04-20 19:27 | 50.38421 | 1.03904 | 22879 ft | 359 kts | 301° |
| 2026-04-20 19:27 | 50.39749 | 1.00579 | 22432 ft | 358 kts | 301° |
| 2026-04-20 19:28 | 50.41058 | 0.97297 | 22011 ft | 358 kts | 302° |
| 2026-04-20 19:28 | 50.42367 | 0.94012 | 21583 ft | 357 kts | 302° |
| 2026-04-20 19:28 | 50.43675 | 0.90724 | 21132 ft | 357 kts | 302° |
| 2026-04-20 19:28 | 50.44805 | 0.87291 | 20715 ft | 356 kts | 291° |
| 2026-04-20 19:29 | 50.45534 | 0.83546 | 20261 ft | 357 kts | 289° |
| 2026-04-20 19:29 | 50.46231 | 0.79817 | 19817 ft | 356 kts | 289° |
| 2026-04-20 19:29 | 50.46922 | 0.76134 | 19395 ft | 355 kts | 289° |
| 2026-04-20 19:29 | 50.47621 | 0.72404 | 18972 ft | 356 kts | 289° |
| 2026-04-20 19:30 | 50.48309 | 0.68731 | 18538 ft | 355 kts | 289° |
| 2026-04-20 19:30 | 50.48949 | 0.64981 | 18093 ft | 356 kts | 284° |
| 2026-04-20 19:30 | 50.49327 | 0.61158 | 17785 ft | 353 kts | 281° |
| 2026-04-20 19:30 | 50.49675 | 0.57396 | 17668 ft | 353 kts | 281° |
| 2026-04-20 19:31 | 50.50032 | 0.53569 | 17494 ft | 357 kts | 281° |
| 2026-04-20 19:31 | 50.50394 | 0.49684 | 17263 ft | 355 kts | 281° |
| 2026-04-20 19:31 | 50.50747 | 0.45891 | 17042 ft | 355 kts | 281° |
| 2026-04-20 19:31 | 50.51098 | 0.42105 | 16847 ft | 354 kts | 281° |
| 2026-04-20 19:32 | 50.51455 | 0.38236 | 16621 ft | 354 kts | 281° |
| 2026-04-20 19:32 | 50.51806 | 0.34432 | 16405 ft | 353 kts | 280° |
| 2026-04-20 19:32 | 50.52156 | 0.30624 | 16188 ft | 353 kts | 280° |
| 2026-04-20 19:32 | 50.52508 | 0.26791 | 15970 ft | 352 kts | 281° |
| 2026-04-20 19:33 | 50.52853 | 0.23018 | 15754 ft | 351 kts | 280° |
| 2026-04-20 19:33 | 50.53198 | 0.19242 | 15533 ft | 351 kts | 280° |
| 2026-04-20 19:33 | 50.53541 | 0.15466 | 15333 ft | 351 kts | 280° |
| 2026-04-20 19:33 | 50.53888 | 0.11632 | 15099 ft | 351 kts | 280° |
| 2026-04-20 19:34 | 50.54226 | 0.07892 | 14901 ft | 350 kts | 280° |
| 2026-04-20 19:34 | 50.54566 | 0.04118 | 14674 ft | 349 kts | 280° |
| 2026-04-20 19:34 | 50.54906 | 0.00326 | 14467 ft | 349 kts | 280° |
| 2026-04-20 19:34 | 50.55244 | -0.03456 | 14240 ft | 348 kts | 280° |
| 2026-04-20 19:35 | 50.55578 | -0.07208 | 14022 ft | 348 kts | 280° |
| 2026-04-20 19:35 | 50.55913 | -0.10973 | 13820 ft | 347 kts | 280° |
| 2026-04-20 19:35 | 50.56519 | -0.14554 | 13623 ft | 338 kts | 297° |
| 2026-04-20 19:35 | 50.57833 | -0.17557 | 13372 ft | 330 kts | 310° |
| 2026-04-20 19:36 | 50.59278 | -0.20305 | 13161 ft | 326 kts | 310° |
| 2026-04-20 19:36 | 50.60711 | -0.23056 | 12944 ft | 331 kts | 310° |
| 2026-04-20 19:36 | 50.62178 | -0.25873 | 12745 ft | 339 kts | 310° |
| 2026-04-20 19:36 | 50.63670 | -0.28743 | 12515 ft | 340 kts | 310° |
| 2026-04-20 19:37 | 50.65177 | -0.31645 | 12300 ft | 340 kts | 310° |
| 2026-04-20 19:37 | 50.66661 | -0.34506 | 12090 ft | 339 kts | 310° |
| 2026-04-20 19:37 | 50.68146 | -0.37374 | 11847 ft | 335 kts | 310° |
| 2026-04-20 19:37 | 50.69588 | -0.40161 | 11641 ft | 327 kts | 310° |
| 2026-04-20 19:38 | 50.71010 | -0.42912 | 11463 ft | 321 kts | 310° |
| 2026-04-20 19:38 | 50.72412 | -0.45626 | 11225 ft | 313 kts | 310° |
| 2026-04-20 19:38 | 50.73759 | -0.48237 | 11058 ft | 306 kts | 310° |
| 2026-04-20 19:38 | 50.75096 | -0.50830 | 10838 ft | 300 kts | 310° |
| 2026-04-20 19:39 | 50.76387 | -0.53337 | 10662 ft | 292 kts | 311° |
| 2026-04-20 19:39 | 50.77643 | -0.55778 | 10476 ft | 286 kts | 311° |
| 2026-04-20 19:39 | 50.78897 | -0.58218 | 10297 ft | 281 kts | 311° |
| 2026-04-20 19:39 | 50.80111 | -0.60580 | 10111 ft | 280 kts | 311° |
| 2026-04-20 19:40 | 50.81344 | -0.62982 | 9929 ft | 280 kts | 311° |
| 2026-04-20 19:40 | 50.82572 | -0.65376 | 9739 ft | 278 kts | 310° |
| 2026-04-20 19:40 | 50.83799 | -0.67768 | 9568 ft | 279 kts | 311° |
| 2026-04-20 19:40 | 50.85010 | -0.70134 | 9388 ft | 279 kts | 310° |
| 2026-04-20 19:41 | 50.86349 | -0.72341 | 9209 ft | 275 kts | 326° |
| 2026-04-20 19:41 | 50.88067 | -0.73593 | 9033 ft | 272 kts | 344° |
| 2026-04-20 19:41 | 50.89879 | -0.74450 | 8834 ft | 274 kts | 344° |
| 2026-04-20 19:41 | 50.91673 | -0.75313 | 8666 ft | 271 kts | 344° |
| 2026-04-20 19:42 | 50.93481 | -0.76183 | 8532 ft | 272 kts | 345° |
| 2026-04-20 19:42 | 50.95301 | -0.77060 | 8316 ft | 270 kts | 345° |
| 2026-04-20 19:42 | 50.97090 | -0.77924 | 8154 ft | 269 kts | 345° |
| 2026-04-20 19:42 | 50.98869 | -0.78783 | 7974 ft | 267 kts | 345° |
| 2026-04-20 19:43 | 51.00658 | -0.79626 | 7826 ft | 266 kts | 348° |
| 2026-04-20 19:43 | 51.02481 | -0.79729 | 7642 ft | 263 kts | 9° |
| 2026-04-20 19:43 | 51.04283 | -0.79294 | 7455 ft | 262 kts | 10° |
| 2026-04-20 19:43 | 51.06081 | -0.78870 | 7295 ft | 259 kts | 10° |
| 2026-04-20 19:44 | 51.07856 | -0.78451 | 7154 ft | 261 kts | 10° |
| 2026-04-20 19:44 | 51.09639 | -0.77940 | 6971 ft | 259 kts | 12° |
| 2026-04-20 19:44 | 51.11422 | -0.77381 | 6808 ft | 260 kts | 12° |
| 2026-04-20 19:44 | 51.13188 | -0.76828 | 6637 ft | 259 kts | 13° |
| 2026-04-20 19:45 | 51.14923 | -0.76139 | 6471 ft | 257 kts | 18° |
| 2026-04-20 19:45 | 51.16624 | -0.75342 | 6310 ft | 256 kts | 20° |
| 2026-04-20 19:45 | 51.18142 | -0.73949 | 6147 ft | 252 kts | 44° |
| 2026-04-20 19:45 | 51.19221 | -0.71723 | 5980 ft | 252 kts | 55° |
| 2026-04-20 19:46 | 51.20182 | -0.69414 | 5742 ft | 253 kts | 55° |
| 2026-04-20 19:46 | 51.21164 | -0.67071 | 5342 ft | 253 kts | 55° |
| 2026-04-20 19:46 | 51.22137 | -0.64751 | 4967 ft | 249 kts | 55° |
| 2026-04-20 19:46 | 51.23090 | -0.62485 | 4597 ft | 245 kts | 53° |
| 2026-04-20 19:47 | 51.24327 | -0.60723 | 4229 ft | 241 kts | 26° |
| 2026-04-20 19:47 | 51.25972 | -0.60371 | 3857 ft | 243 kts | 352° |
| 2026-04-20 19:47 | 51.27470 | -0.61625 | 3537 ft | 247 kts | 317° |
| 2026-04-20 19:47 | 51.28286 | -0.63984 | 3300 ft | 248 kts | 290° |
| 2026-04-20 19:48 | 51.28582 | -0.66683 | 3060 ft | 248 kts | 278° |
| 2026-04-20 19:48 | 51.28737 | -0.69446 | 2998 ft | 249 kts | 278° |
| 2026-04-20 19:48 | 51.28886 | -0.72215 | 2999 ft | 250 kts | 278° |
| 2026-04-20 19:48 | 51.29029 | -0.74949 | 3003 ft | 244 kts | 277° |
| 2026-04-20 19:49 | 51.29169 | -0.77650 | 3007 ft | 242 kts | 277° |
| 2026-04-20 19:49 | 51.29308 | -0.80306 | 3001 ft | 242 kts | 278° |
| 2026-04-20 19:49 | 51.29450 | -0.83006 | 3002 ft | 242 kts | 278° |
| 2026-04-20 19:49 | 51.29589 | -0.85677 | 2998 ft | 242 kts | 277° |
| 2026-04-20 19:50 | 51.29566 | -0.88388 | 2996 ft | 244 kts | 268° |
| 2026-04-20 19:50 | 51.29438 | -0.91075 | 2997 ft | 244 kts | 268° |
| 2026-04-20 19:50 | 51.29302 | -0.93758 | 2999 ft | 244 kts | 268° |
| 2026-04-20 19:50 | 51.29165 | -0.96480 | 2972 ft | 244 kts | 268° |
| 2026-04-20 19:51 | 51.29032 | -0.99122 | 2859 ft | 235 kts | 268° |
| 2026-04-20 19:51 | 51.28905 | -1.01668 | 2752 ft | 224 kts | 268° |
| 2026-04-20 19:51 | 51.28678 | -1.04093 | 2632 ft | 222 kts | 250° |
| 2026-04-20 19:51 | 51.28034 | -1.06313 | 2506 ft | 223 kts | 243° |
| 2026-04-20 19:52 | 51.27247 | -1.08441 | 2488 ft | 223 kts | 226° |
| 2026-04-20 19:52 | 51.25956 | -1.09658 | 2483 ft | 215 kts | 185° |
| 2026-04-20 19:52 | 51.24524 | -1.09438 | 2503 ft | 202 kts | 158° |
| 2026-04-20 19:52 | 51.23230 | -1.08786 | 2523 ft | 188 kts | 156° |
| 2026-04-20 19:53 | 51.22024 | -1.08040 | 2503 ft | 187 kts | 150° |
| 2026-04-20 19:53 | 51.20875 | -1.07099 | 2484 ft | 181 kts | 134° |
| 2026-04-20 19:53 | 51.20263 | -1.05483 | 2481 ft | 170 kts | 103° |
| 2026-04-20 19:53 | 51.19924 | -1.03674 | 2497 ft | 170 kts | 101° |
| 2026-04-20 19:54 | 51.19702 | -1.01831 | 2488 ft | 167 kts | 85° |
| 2026-04-20 19:54 | 51.19976 | -1.00065 | 2493 ft | 164 kts | 65° |
| 2026-04-20 19:54 | 51.20520 | -0.98468 | 2495 ft | 165 kts | 59° |
| 2026-04-20 19:54 | 51.21091 | -0.96934 | 2503 ft | 153 kts | 59° |
| 2026-04-20 19:55 | 51.21601 | -0.95487 | 2493 ft | 147 kts | 60° |
| 2026-04-20 19:55 | 51.22078 | -0.94079 | 2468 ft | 143 kts | 61° |
| 2026-04-20 19:55 | 51.22546 | -0.92679 | 2491 ft | 144 kts | 61° |
| 2026-04-20 19:55 | 51.23025 | -0.91245 | 2339 ft | 146 kts | 61° |
| 2026-04-20 19:56 | 51.23340 | -0.90306 | 2180 ft | 144 kts | 61° |
| 2026-04-20 19:56 | 51.23919 | -0.88577 | 1918 ft | 118 kts | 62° |
| 2026-04-20 19:56 | 51.24291 | -0.87465 | 1738 ft | 115 kts | 61° |
| 2026-04-20 19:56 | 51.24666 | -0.86348 | 1534 ft | 113 kts | 61° |
| 2026-04-20 19:57 | 51.25045 | -0.85230 | 1298 ft | 113 kts | 60° |
| 2026-04-20 19:57 | 51.25421 | -0.84097 | 1086 ft | 120 kts | 62° |
| 2026-04-20 19:57 | 51.25818 | -0.82899 | 886 ft | 122 kts | 62° |
| 2026-04-20 19:57 | 51.26231 | -0.81703 | 731 ft | 125 kts | 61° |
| 2026-04-20 19:58 | 51.26639 | -0.80486 | 574 ft | 125 kts | 62° |
| 2026-04-20 19:58 | 51.27056 | -0.79223 | 398 ft | 128 kts | 62° |
| 2026-04-20 19:58 | 51.27468 | -0.77975 | 254 ft | 124 kts | 62° |
| 2026-04-20 19:58 | 51.27791 | -0.77010 | 241 ft | 42 kts | 62° |
| 2026-04-20 19:59 | 51.27824 | -0.76918 | 241 ft | 28 kts | 56° |